sensor_id;sensor_type;location;lat;lon;timestamp;P1;P2;P0
38451;PMS5003;24231;52.514;13.438;2022-10-31T00:03:01;73;69;
38451;PMS5003;24231;52.514;13.438;2022-10-31T00:05:29;63;58;
38451;PMS5003;24231;52.514;13.438;2022-10-31T00:07:56;55;51;
38451;PMS5003;24231;52.514;13.438;2022-10-31T00:10:23;56;50;
38451;PMS5003;24231;52.514;13.438;2022-10-31T00:12:50;59;52;
38451;PMS5003;24231;52.514;13.438;2022-10-31T00:15:18;57;45;
38451;PMS5003;24231;52.514;13.438;2022-10-31T00:17:45;55;53;
38451;PMS5003;24231;52.514;13.438;2022-10-31T00:20:12;58;51;
38451;PMS5003;24231;52.514;13.438;2022-10-31T00:22:39;59;52;
38451;PMS5003;24231;52.514;13.438;2022-10-31T00:25:07;55;51;
38451;PMS5003;24231;52.514;13.438;2022-10-31T00:27:34;56;51;
38451;PMS5003;24231;52.514;13.438;2022-10-31T00:30:02;61;47;
38451;PMS5003;24231;52.514;13.438;2022-10-31T00:32:30;59;51;
38451;PMS5003;24231;52.514;13.438;2022-10-31T00:34:57;71;56;
38451;PMS5003;24231;52.514;13.438;2022-10-31T00:37:25;60;53;
38451;PMS5003;24231;52.514;13.438;2022-10-31T00:39:53;62;58;
38451;PMS5003;24231;52.514;13.438;2022-10-31T00:42:20;53;50;
38451;PMS5003;24231;52.514;13.438;2022-10-31T00:44:47;54;47;
38451;PMS5003;24231;52.514;13.438;2022-10-31T00:47:15;61;51;
38451;PMS5003;24231;52.514;13.438;2022-10-31T00:49:42;61;52;
38451;PMS5003;24231;52.514;13.438;2022-10-31T00:52:10;57;52;
38451;PMS5003;24231;52.514;13.438;2022-10-31T00:54:37;53;45;
38451;PMS5003;24231;52.514;13.438;2022-10-31T00:57:04;48;45;
38451;PMS5003;24231;52.514;13.438;2022-10-31T00:59:31;52;42;
38451;PMS5003;24231;52.514;13.438;2022-10-31T01:01:58;55;51;
38451;PMS5003;24231;52.514;13.438;2022-10-31T01:04:25;46;43;
38451;PMS5003;24231;52.514;13.438;2022-10-31T01:06:52;54;48;
38451;PMS5003;24231;52.514;13.438;2022-10-31T01:09:19;56;45;
38451;PMS5003;24231;52.514;13.438;2022-10-31T01:11:47;55;52;
38451;PMS5003;24231;52.514;13.438;2022-10-31T01:14:14;47;40;
38451;PMS5003;24231;52.514;13.438;2022-10-31T01:16:41;45;40;
38451;PMS5003;24231;52.514;13.438;2022-10-31T01:19:08;52;45;
38451;PMS5003;24231;52.514;13.438;2022-10-31T01:21:35;47;44;
38451;PMS5003;24231;52.514;13.438;2022-10-31T01:24:08;58;47;
38451;PMS5003;24231;52.514;13.438;2022-10-31T01:26:35;49;44;
38451;PMS5003;24231;52.514;13.438;2022-10-31T01:29:04;38;35;
38451;PMS5003;24231;52.514;13.438;2022-10-31T01:31:34;41;40;
38451;PMS5003;24231;52.514;13.438;2022-10-31T01:34:03;53;46;
38451;PMS5003;24231;52.514;13.438;2022-10-31T01:36:32;42;37;
38451;PMS5003;24231;52.514;13.438;2022-10-31T01:39:01;35;30;
38451;PMS5003;24231;52.514;13.438;2022-10-31T01:41:31;50;46;
38451;PMS5003;24231;52.514;13.438;2022-10-31T01:44:01;55;49;
38451;PMS5003;24231;52.514;13.438;2022-10-31T01:46:31;38;37;
38451;PMS5003;24231;52.514;13.438;2022-10-31T01:49:04;48;45;
38451;PMS5003;24231;52.514;13.438;2022-10-31T01:51:40;46;40;
38451;PMS5003;24231;52.514;13.438;2022-10-31T01:54:15;33;31;
38451;PMS5003;24231;52.514;13.438;2022-10-31T01:56:46;38;36;
38451;PMS5003;24231;52.514;13.438;2022-10-31T01:59:17;40;38;
38451;PMS5003;24231;52.514;13.438;2022-10-31T02:01:47;36;34;
38451;PMS5003;24231;52.514;13.438;2022-10-31T02:04:16;42;38;
38451;PMS5003;24231;52.514;13.438;2022-10-31T02:06:46;37;36;
38451;PMS5003;24231;52.514;13.438;2022-10-31T02:09:18;43;39;
38451;PMS5003;24231;52.514;13.438;2022-10-31T02:11:46;33;32;
38451;PMS5003;24231;52.514;13.438;2022-10-31T02:14:13;43;41;
38451;PMS5003;24231;52.514;13.438;2022-10-31T02:16:41;38;35;
38451;PMS5003;24231;52.514;13.438;2022-10-31T02:19:08;43;36;
38451;PMS5003;24231;52.514;13.438;2022-10-31T02:21:44;37;29;
38451;PMS5003;24231;52.514;13.438;2022-10-31T02:24:29;35;33;
38451;PMS5003;24231;52.514;13.438;2022-10-31T02:27:09;43;35;
38451;PMS5003;24231;52.514;13.438;2022-10-31T02:29:55;34;32;
38451;PMS5003;24231;52.514;13.438;2022-10-31T02:32:41;35;31;
38451;PMS5003;24231;52.514;13.438;2022-10-31T02:35:19;42;37;
38451;PMS5003;24231;52.514;13.438;2022-10-31T02:37:56;36;30;
38451;PMS5003;24231;52.514;13.438;2022-10-31T02:40:30;40;34;
38451;PMS5003;24231;52.514;13.438;2022-10-31T02:43:05;34;34;
38451;PMS5003;24231;52.514;13.438;2022-10-31T02:45:41;41;33;
38451;PMS5003;24231;52.514;13.438;2022-10-31T02:48:16;40;37;
38451;PMS5003;24231;52.514;13.438;2022-10-31T02:50:48;37;28;
38451;PMS5003;24231;52.514;13.438;2022-10-31T02:53:22;42;35;
38451;PMS5003;24231;52.514;13.438;2022-10-31T02:55:51;41;33;
38451;PMS5003;24231;52.514;13.438;2022-10-31T02:58:24;33;30;
38451;PMS5003;24231;52.514;13.438;2022-10-31T03:01:02;36;31;
38451;PMS5003;24231;52.514;13.438;2022-10-31T03:03:42;30;29;
38451;PMS5003;24231;52.514;13.438;2022-10-31T03:06:20;36;30;
38451;PMS5003;24231;52.514;13.438;2022-10-31T03:08:59;32;28;
38451;PMS5003;24231;52.514;13.438;2022-10-31T03:11:38;34;33;
38451;PMS5003;24231;52.514;13.438;2022-10-31T03:14:15;33;32;
38451;PMS5003;24231;52.514;13.438;2022-10-31T03:16:48;31;28;
38451;PMS5003;24231;52.514;13.438;2022-10-31T03:19:17;44;31;
38451;PMS5003;24231;52.514;13.438;2022-10-31T03:21:50;27;27;
38451;PMS5003;24231;52.514;13.438;2022-10-31T03:24:22;33;29;
38451;PMS5003;24231;52.514;13.438;2022-10-31T03:26:54;32;30;
38451;PMS5003;24231;52.514;13.438;2022-10-31T03:29:27;33;28;
38451;PMS5003;24231;52.514;13.438;2022-10-31T03:31:57;32;29;
38451;PMS5003;24231;52.514;13.438;2022-10-31T03:34:28;30;29;
38451;PMS5003;24231;52.514;13.438;2022-10-31T03:36:57;36;31;
38451;PMS5003;24231;52.514;13.438;2022-10-31T03:39:29;28;28;
38451;PMS5003;24231;52.514;13.438;2022-10-31T03:41:59;29;28;
38451;PMS5003;24231;52.514;13.438;2022-10-31T03:44:31;30;27;
38451;PMS5003;24231;52.514;13.438;2022-10-31T03:47:00;32;28;
38451;PMS5003;24231;52.514;13.438;2022-10-31T03:49:29;24;21;
38451;PMS5003;24231;52.514;13.438;2022-10-31T03:51:59;37;31;
38451;PMS5003;24231;52.514;13.438;2022-10-31T03:54:36;28;25;
38451;PMS5003;24231;52.514;13.438;2022-10-31T03:57:08;28;26;
38451;PMS5003;24231;52.514;13.438;2022-10-31T03:59:46;28;26;
38451;PMS5003;24231;52.514;13.438;2022-10-31T04:02:17;28;24;
38451;PMS5003;24231;52.514;13.438;2022-10-31T04:04:48;32;24;
38451;PMS5003;24231;52.514;13.438;2022-10-31T04:07:17;20;19;
38451;PMS5003;24231;52.514;13.438;2022-10-31T04:09:47;22;20;
38451;PMS5003;24231;52.514;13.438;2022-10-31T04:12:18;32;29;
38451;PMS5003;24231;52.514;13.438;2022-10-31T04:14:46;19;19;
38451;PMS5003;24231;52.514;13.438;2022-10-31T04:17:16;23;23;
38451;PMS5003;24231;52.514;13.438;2022-10-31T04:19:46;22;21;
38451;PMS5003;24231;52.514;13.438;2022-10-31T04:22:13;30;22;
38451;PMS5003;24231;52.514;13.438;2022-10-31T04:24:40;25;23;
38451;PMS5003;24231;52.514;13.438;2022-10-31T04:27:08;26;23;
38451;PMS5003;24231;52.514;13.438;2022-10-31T04:29:35;22;19;
38451;PMS5003;24231;52.514;13.438;2022-10-31T04:32:02;28;27;
38451;PMS5003;24231;52.514;13.438;2022-10-31T04:34:28;29;21;
38451;PMS5003;24231;52.514;13.438;2022-10-31T04:36:55;28;23;
38451;PMS5003;24231;52.514;13.438;2022-10-31T04:39:23;22;20;
38451;PMS5003;24231;52.514;13.438;2022-10-31T04:41:50;19;19;
38451;PMS5003;24231;52.514;13.438;2022-10-31T04:44:17;24;21;
38451;PMS5003;24231;52.514;13.438;2022-10-31T04:46:44;28;26;
38451;PMS5003;24231;52.514;13.438;2022-10-31T04:49:12;32;24;
38451;PMS5003;24231;52.514;13.438;2022-10-31T04:51:39;24;23;
38451;PMS5003;24231;52.514;13.438;2022-10-31T04:54:06;47;42;
38451;PMS5003;24231;52.514;13.438;2022-10-31T04:56:34;41;34;
38451;PMS5003;24231;52.514;13.438;2022-10-31T04:59:01;28;25;
38451;PMS5003;24231;52.514;13.438;2022-10-31T05:01:28;24;21;
38451;PMS5003;24231;52.514;13.438;2022-10-31T05:03:55;28;24;
38451;PMS5003;24231;52.514;13.438;2022-10-31T05:06:22;28;26;
38451;PMS5003;24231;52.514;13.438;2022-10-31T05:08:50;27;24;
38451;PMS5003;24231;52.514;13.438;2022-10-31T05:11:17;36;29;
38451;PMS5003;24231;52.514;13.438;2022-10-31T05:13:44;29;29;
38451;PMS5003;24231;52.514;13.438;2022-10-31T05:16:11;22;22;
38451;PMS5003;24231;52.514;13.438;2022-10-31T05:18:38;28;22;
38451;PMS5003;24231;52.514;13.438;2022-10-31T05:21:06;23;21;
38451;PMS5003;24231;52.514;13.438;2022-10-31T05:23:33;29;25;
38451;PMS5003;24231;52.514;13.438;2022-10-31T05:26:00;23;21;
38451;PMS5003;24231;52.514;13.438;2022-10-31T05:28:27;19;18;
38451;PMS5003;24231;52.514;13.438;2022-10-31T05:30:55;22;22;
38451;PMS5003;24231;52.514;13.438;2022-10-31T05:33:22;23;19;
38451;PMS5003;24231;52.514;13.438;2022-10-31T05:35:49;24;22;
38451;PMS5003;24231;52.514;13.438;2022-10-31T05:38:17;25;22;
38451;PMS5003;24231;52.514;13.438;2022-10-31T05:40:44;27;26;
38451;PMS5003;24231;52.514;13.438;2022-10-31T05:43:11;28;28;
38451;PMS5003;24231;52.514;13.438;2022-10-31T05:45:38;22;20;
38451;PMS5003;24231;52.514;13.438;2022-10-31T05:48:05;25;22;
38451;PMS5003;24231;52.514;13.438;2022-10-31T05:50:32;29;25;
38451;PMS5003;24231;52.514;13.438;2022-10-31T05:53:00;32;29;
38451;PMS5003;24231;52.514;13.438;2022-10-31T05:55:29;34;26;
38451;PMS5003;24231;52.514;13.438;2022-10-31T05:57:57;31;25;
38451;PMS5003;24231;52.514;13.438;2022-10-31T06:00:25;26;25;
38451;PMS5003;24231;52.514;13.438;2022-10-31T06:02:57;23;20;
38451;PMS5003;24231;52.514;13.438;2022-10-31T06:05:24;21;20;
38451;PMS5003;24231;52.514;13.438;2022-10-31T06:07:51;29;27;
38451;PMS5003;24231;52.514;13.438;2022-10-31T06:10:18;30;28;
38451;PMS5003;24231;52.514;13.438;2022-10-31T06:12:45;26;26;
38451;PMS5003;24231;52.514;13.438;2022-10-31T06:15:12;29;28;
38451;PMS5003;24231;52.514;13.438;2022-10-31T06:17:40;27;25;
38451;PMS5003;24231;52.514;13.438;2022-10-31T06:20:08;29;24;
38451;PMS5003;24231;52.514;13.438;2022-10-31T06:22:35;32;31;
38451;PMS5003;24231;52.514;13.438;2022-10-31T06:25:03;33;31;
38451;PMS5003;24231;52.514;13.438;2022-10-31T06:27:31;34;32;
38451;PMS5003;24231;52.514;13.438;2022-10-31T06:29:58;29;26;
38451;PMS5003;24231;52.514;13.438;2022-10-31T06:32:25;23;23;
38451;PMS5003;24231;52.514;13.438;2022-10-31T06:34:52;28;23;
38451;PMS5003;24231;52.514;13.438;2022-10-31T06:37:19;24;22;
38451;PMS5003;24231;52.514;13.438;2022-10-31T06:39:47;27;23;
38451;PMS5003;24231;52.514;13.438;2022-10-31T06:42:15;29;23;
38451;PMS5003;24231;52.514;13.438;2022-10-31T06:44:42;33;27;
38451;PMS5003;24231;52.514;13.438;2022-10-31T06:47:09;34;30;
38451;PMS5003;24231;52.514;13.438;2022-10-31T06:49:37;27;26;
38451;PMS5003;24231;52.514;13.438;2022-10-31T06:52:04;31;30;
38451;PMS5003;24231;52.514;13.438;2022-10-31T06:54:31;28;28;
38451;PMS5003;24231;52.514;13.438;2022-10-31T06:56:59;32;24;
38451;PMS5003;24231;52.514;13.438;2022-10-31T06:59:26;29;27;
38451;PMS5003;24231;52.514;13.438;2022-10-31T07:01:54;36;28;
38451;PMS5003;24231;52.514;13.438;2022-10-31T07:04:21;34;28;
38451;PMS5003;24231;52.514;13.438;2022-10-31T07:06:50;26;25;
38451;PMS5003;24231;52.514;13.438;2022-10-31T07:09:17;27;23;
38451;PMS5003;24231;52.514;13.438;2022-10-31T07:11:44;25;20;
38451;PMS5003;24231;52.514;13.438;2022-10-31T07:14:11;23;21;
38451;PMS5003;24231;52.514;13.438;2022-10-31T07:16:39;23;21;
38451;PMS5003;24231;52.514;13.438;2022-10-31T07:19:06;30;24;
38451;PMS5003;24231;52.514;13.438;2022-10-31T07:21:33;28;23;
38451;PMS5003;24231;52.514;13.438;2022-10-31T07:24:01;31;26;
38451;PMS5003;24231;52.514;13.438;2022-10-31T07:26:28;33;29;
38451;PMS5003;24231;52.514;13.438;2022-10-31T07:28:55;26;24;
38451;PMS5003;24231;52.514;13.438;2022-10-31T07:31:22;26;22;
38451;PMS5003;24231;52.514;13.438;2022-10-31T07:33:49;34;26;
38451;PMS5003;24231;52.514;13.438;2022-10-31T07:36:17;27;22;
38451;PMS5003;24231;52.514;13.438;2022-10-31T07:38:43;22;21;
38451;PMS5003;24231;52.514;13.438;2022-10-31T07:41:11;30;28;
38451;PMS5003;24231;52.514;13.438;2022-10-31T07:43:39;21;18;
38451;PMS5003;24231;52.514;13.438;2022-10-31T07:46:05;26;24;
38451;PMS5003;24231;52.514;13.438;2022-10-31T07:48:33;26;21;
38451;PMS5003;24231;52.514;13.438;2022-10-31T07:51:01;26;25;
38451;PMS5003;24231;52.514;13.438;2022-10-31T07:53:29;28;24;
38451;PMS5003;24231;52.514;13.438;2022-10-31T07:55:56;32;29;
38451;PMS5003;24231;52.514;13.438;2022-10-31T07:58:23;32;27;
38451;PMS5003;24231;52.514;13.438;2022-10-31T08:00:50;27;25;
38451;PMS5003;24231;52.514;13.438;2022-10-31T08:03:18;35;29;
38451;PMS5003;24231;52.514;13.438;2022-10-31T08:05:45;31;29;
38451;PMS5003;24231;52.514;13.438;2022-10-31T08:08:13;35;29;
38451;PMS5003;24231;52.514;13.438;2022-10-31T08:10:42;36;29;
38451;PMS5003;24231;52.514;13.438;2022-10-31T08:13:10;30;23;
38451;PMS5003;24231;52.514;13.438;2022-10-31T08:15:38;34;31;
38451;PMS5003;24231;52.514;13.438;2022-10-31T08:18:06;37;32;
38451;PMS5003;24231;52.514;13.438;2022-10-31T08:20:39;32;28;
38451;PMS5003;24231;52.514;13.438;2022-10-31T08:23:08;38;34;
38451;PMS5003;24231;52.514;13.438;2022-10-31T08:25:36;34;30;
38451;PMS5003;24231;52.514;13.438;2022-10-31T08:28:03;31;26;
38451;PMS5003;24231;52.514;13.438;2022-10-31T08:30:32;35;31;
38451;PMS5003;24231;52.514;13.438;2022-10-31T08:33:01;31;27;
38451;PMS5003;24231;52.514;13.438;2022-10-31T08:35:29;29;27;
38451;PMS5003;24231;52.514;13.438;2022-10-31T08:37:58;32;28;
38451;PMS5003;24231;52.514;13.438;2022-10-31T08:40:26;26;26;
38451;PMS5003;24231;52.514;13.438;2022-10-31T08:42:56;30;23;
38451;PMS5003;24231;52.514;13.438;2022-10-31T08:45:23;32;27;
38451;PMS5003;24231;52.514;13.438;2022-10-31T08:47:51;28;25;
38451;PMS5003;24231;52.514;13.438;2022-10-31T08:50:18;32;30;
38451;PMS5003;24231;52.514;13.438;2022-10-31T08:52:45;29;27;
38451;PMS5003;24231;52.514;13.438;2022-10-31T08:55:13;35;30;
38451;PMS5003;24231;52.514;13.438;2022-10-31T08:57:40;31;26;
38451;PMS5003;24231;52.514;13.438;2022-10-31T09:00:08;28;24;
38451;PMS5003;24231;52.514;13.438;2022-10-31T09:02:36;35;30;
38451;PMS5003;24231;52.514;13.438;2022-10-31T09:05:04;37;31;
38451;PMS5003;24231;52.514;13.438;2022-10-31T09:07:31;36;31;
38451;PMS5003;24231;52.514;13.438;2022-10-31T09:09:59;30;27;
38451;PMS5003;24231;52.514;13.438;2022-10-31T09:12:25;48;37;
38451;PMS5003;24231;52.514;13.438;2022-10-31T09:14:53;31;25;
38451;PMS5003;24231;52.514;13.438;2022-10-31T09:17:20;24;24;
38451;PMS5003;24231;52.514;13.438;2022-10-31T09:19:48;33;28;
38451;PMS5003;24231;52.514;13.438;2022-10-31T09:22:15;32;26;
38451;PMS5003;24231;52.514;13.438;2022-10-31T09:24:42;38;33;
38451;PMS5003;24231;52.514;13.438;2022-10-31T09:27:09;42;31;
38451;PMS5003;24231;52.514;13.438;2022-10-31T09:29:37;30;28;
38451;PMS5003;24231;52.514;13.438;2022-10-31T09:32:04;41;37;
38451;PMS5003;24231;52.514;13.438;2022-10-31T09:34:31;31;30;
38451;PMS5003;24231;52.514;13.438;2022-10-31T09:36:58;33;28;
38451;PMS5003;24231;52.514;13.438;2022-10-31T09:39:26;33;28;
38451;PMS5003;24231;52.514;13.438;2022-10-31T09:42:02;44;39;
38451;PMS5003;24231;52.514;13.438;2022-10-31T09:44:42;41;37;
38451;PMS5003;24231;52.514;13.438;2022-10-31T09:47:17;41;36;
38451;PMS5003;24231;52.514;13.438;2022-10-31T09:49:59;75;62;
38451;PMS5003;24231;52.514;13.438;2022-10-31T09:52:39;49;47;
38451;PMS5003;24231;52.514;13.438;2022-10-31T09:55:15;41;39;
38451;PMS5003;24231;52.514;13.438;2022-10-31T09:57:44;49;44;
38451;PMS5003;24231;52.514;13.438;2022-10-31T10:00:15;41;37;
38451;PMS5003;24231;52.514;13.438;2022-10-31T10:02:46;41;39;
38451;PMS5003;24231;52.514;13.438;2022-10-31T10:05:17;50;43;
38451;PMS5003;24231;52.514;13.438;2022-10-31T10:07:52;44;41;
38451;PMS5003;24231;52.514;13.438;2022-10-31T10:10:27;45;39;
38451;PMS5003;24231;52.514;13.438;2022-10-31T10:13:09;39;36;
38451;PMS5003;24231;52.514;13.438;2022-10-31T10:15:56;36;33;
38451;PMS5003;24231;52.514;13.438;2022-10-31T10:18:35;44;40;
38451;PMS5003;24231;52.514;13.438;2022-10-31T10:21:12;41;37;
38451;PMS5003;24231;52.514;13.438;2022-10-31T10:23:53;38;33;
38451;PMS5003;24231;52.514;13.438;2022-10-31T10:26:28;38;31;
38451;PMS5003;24231;52.514;13.438;2022-10-31T10:29:03;41;33;
38451;PMS5003;24231;52.514;13.438;2022-10-31T10:31:44;39;36;
38451;PMS5003;24231;52.514;13.438;2022-10-31T10:34:17;43;37;
38451;PMS5003;24231;52.514;13.438;2022-10-31T10:36:50;40;37;
38451;PMS5003;24231;52.514;13.438;2022-10-31T10:39:24;41;32;
38451;PMS5003;24231;52.514;13.438;2022-10-31T10:41:57;34;29;
38451;PMS5003;24231;52.514;13.438;2022-10-31T10:44:26;32;28;
38451;PMS5003;24231;52.514;13.438;2022-10-31T10:46:54;36;32;
38451;PMS5003;24231;52.514;13.438;2022-10-31T10:49:30;37;35;
38451;PMS5003;24231;52.514;13.438;2022-10-31T10:52:02;42;37;
38451;PMS5003;24231;52.514;13.438;2022-10-31T10:54:40;37;32;
38451;PMS5003;24231;52.514;13.438;2022-10-31T10:57:22;39;37;
38451;PMS5003;24231;52.514;13.438;2022-10-31T10:59:59;35;31;
38451;PMS5003;24231;52.514;13.438;2022-10-31T11:02:30;32;28;
38451;PMS5003;24231;52.514;13.438;2022-10-31T11:04:59;30;27;
38451;PMS5003;24231;52.514;13.438;2022-10-31T11:07:37;35;31;
38451;PMS5003;24231;52.514;13.438;2022-10-31T11:10:11;35;33;
38451;PMS5003;24231;52.514;13.438;2022-10-31T11:12:40;39;34;
38451;PMS5003;24231;52.514;13.438;2022-10-31T11:15:16;35;29;
38451;PMS5003;24231;52.514;13.438;2022-10-31T11:17:48;34;32;
38451;PMS5003;24231;52.514;13.438;2022-10-31T11:20:23;37;33;
38451;PMS5003;24231;52.514;13.438;2022-10-31T11:23:00;35;34;
38451;PMS5003;24231;52.514;13.438;2022-10-31T11:25:30;36;30;
38451;PMS5003;24231;52.514;13.438;2022-10-31T11:27:59;35;33;
38451;PMS5003;24231;52.514;13.438;2022-10-31T11:30:27;35;30;
38451;PMS5003;24231;52.514;13.438;2022-10-31T11:32:54;33;29;
38451;PMS5003;24231;52.514;13.438;2022-10-31T11:35:23;36;32;
38451;PMS5003;24231;52.514;13.438;2022-10-31T11:37:52;37;34;
38451;PMS5003;24231;52.514;13.438;2022-10-31T11:40:24;34;28;
38451;PMS5003;24231;52.514;13.438;2022-10-31T11:42:53;42;35;
38451;PMS5003;24231;52.514;13.438;2022-10-31T11:45:27;45;38;
38451;PMS5003;24231;52.514;13.438;2022-10-31T11:47:57;39;37;
38451;PMS5003;24231;52.514;13.438;2022-10-31T11:50:31;41;36;
38451;PMS5003;24231;52.514;13.438;2022-10-31T11:53:02;37;33;
38451;PMS5003;24231;52.514;13.438;2022-10-31T11:55:31;45;39;
38451;PMS5003;24231;52.514;13.438;2022-10-31T11:58:00;40;34;
38451;PMS5003;24231;52.514;13.438;2022-10-31T12:00:28;35;33;
38451;PMS5003;24231;52.514;13.438;2022-10-31T12:03:09;50;45;
38451;PMS5003;24231;52.514;13.438;2022-10-31T12:05:40;41;34;
38451;PMS5003;24231;52.514;13.438;2022-10-31T12:08:11;50;42;
38451;PMS5003;24231;52.514;13.438;2022-10-31T12:10:42;54;43;
38451;PMS5003;24231;52.514;13.438;2022-10-31T12:13:26;44;41;
38451;PMS5003;24231;52.514;13.438;2022-10-31T12:16:00;47;40;
38451;PMS5003;24231;52.514;13.438;2022-10-31T12:18:38;39;38;
38451;PMS5003;24231;52.514;13.438;2022-10-31T12:21:21;44;38;
38451;PMS5003;24231;52.514;13.438;2022-10-31T12:24:04;40;36;
38451;PMS5003;24231;52.514;13.438;2022-10-31T12:26:41;40;35;
38451;PMS5003;24231;52.514;13.438;2022-10-31T12:29:20;45;37;
38451;PMS5003;24231;52.514;13.438;2022-10-31T12:32:02;49;39;
38451;PMS5003;24231;52.514;13.438;2022-10-31T12:34:49;41;34;
38451;PMS5003;24231;52.514;13.438;2022-10-31T12:37:35;37;30;
38451;PMS5003;24231;52.514;13.438;2022-10-31T12:40:25;41;36;
38451;PMS5003;24231;52.514;13.438;2022-10-31T12:43:07;38;35;
38451;PMS5003;24231;52.514;13.438;2022-10-31T12:45:51;40;31;
38451;PMS5003;24231;52.514;13.438;2022-10-31T12:48:29;39;36;
38451;PMS5003;24231;52.514;13.438;2022-10-31T12:51:08;37;33;
38451;PMS5003;24231;52.514;13.438;2022-10-31T12:53:45;43;38;
38451;PMS5003;24231;52.514;13.438;2022-10-31T12:56:26;36;33;
38451;PMS5003;24231;52.514;13.438;2022-10-31T12:59:06;38;33;
38451;PMS5003;24231;52.514;13.438;2022-10-31T13:01:48;34;32;
38451;PMS5003;24231;52.514;13.438;2022-10-31T13:04:21;44;34;
38451;PMS5003;24231;52.514;13.438;2022-10-31T13:07:00;42;36;
38451;PMS5003;24231;52.514;13.438;2022-10-31T13:09:34;36;34;
38451;PMS5003;24231;52.514;13.438;2022-10-31T13:12:07;36;32;
38451;PMS5003;24231;52.514;13.438;2022-10-31T13:14:39;39;35;
38451;PMS5003;24231;52.514;13.438;2022-10-31T13:17:10;49;38;
38451;PMS5003;24231;52.514;13.438;2022-10-31T13:19:45;39;34;
38451;PMS5003;24231;52.514;13.438;2022-10-31T13:22:15;38;32;
38451;PMS5003;24231;52.514;13.438;2022-10-31T13:24:48;36;32;
38451;PMS5003;24231;52.514;13.438;2022-10-31T13:27:22;36;32;
38451;PMS5003;24231;52.514;13.438;2022-10-31T13:30:00;39;35;
38451;PMS5003;24231;52.514;13.438;2022-10-31T13:32:37;38;31;
38451;PMS5003;24231;52.514;13.438;2022-10-31T13:35:08;41;37;
38451;PMS5003;24231;52.514;13.438;2022-10-31T13:37:44;41;36;
38451;PMS5003;24231;52.514;13.438;2022-10-31T13:40:19;36;33;
38451;PMS5003;24231;52.514;13.438;2022-10-31T13:43:01;30;27;
38451;PMS5003;24231;52.514;13.438;2022-10-31T13:45:35;38;29;
38451;PMS5003;24231;52.514;13.438;2022-10-31T13:48:18;45;39;
38451;PMS5003;24231;52.514;13.438;2022-10-31T13:50:59;40;35;
38451;PMS5003;24231;52.514;13.438;2022-10-31T13:53:38;38;33;
38451;PMS5003;24231;52.514;13.438;2022-10-31T13:56:13;37;32;
38451;PMS5003;24231;52.514;13.438;2022-10-31T13:58:54;49;43;
38451;PMS5003;24231;52.514;13.438;2022-10-31T14:01:25;43;39;
38451;PMS5003;24231;52.514;13.438;2022-10-31T14:03:56;33;28;
38451;PMS5003;24231;52.514;13.438;2022-10-31T14:06:51;43;38;
38451;PMS5003;24231;52.514;13.438;2022-10-31T14:09:25;47;40;
38451;PMS5003;24231;52.514;13.438;2022-10-31T14:11:59;43;39;
38451;PMS5003;24231;52.514;13.438;2022-10-31T14:14:32;39;33;
38451;PMS5003;24231;52.514;13.438;2022-10-31T14:17:13;42;34;
38451;PMS5003;24231;52.514;13.438;2022-10-31T14:19:56;44;38;
38451;PMS5003;24231;52.514;13.438;2022-10-31T14:22:29;36;32;
38451;PMS5003;24231;52.514;13.438;2022-10-31T14:24:57;35;32;
38451;PMS5003;24231;52.514;13.438;2022-10-31T14:27:33;46;39;
38451;PMS5003;24231;52.514;13.438;2022-10-31T14:30:14;46;40;
38451;PMS5003;24231;52.514;13.438;2022-10-31T14:32:44;43;37;
38451;PMS5003;24231;52.514;13.438;2022-10-31T14:35:16;44;40;
38451;PMS5003;24231;52.514;13.438;2022-10-31T14:37:52;41;36;
38451;PMS5003;24231;52.514;13.438;2022-10-31T14:40:34;44;37;
38451;PMS5003;24231;52.514;13.438;2022-10-31T14:43:16;52;41;
38451;PMS5003;24231;52.514;13.438;2022-10-31T14:45:57;47;38;
38451;PMS5003;24231;52.514;13.438;2022-10-31T14:48:34;48;42;
38451;PMS5003;24231;52.514;13.438;2022-10-31T14:51:12;39;35;
38451;PMS5003;24231;52.514;13.438;2022-10-31T14:53:44;40;36;
38451;PMS5003;24231;52.514;13.438;2022-10-31T14:56:17;43;38;
38451;PMS5003;24231;52.514;13.438;2022-10-31T14:58:49;46;41;
38451;PMS5003;24231;52.514;13.438;2022-10-31T15:01:19;40;38;
38451;PMS5003;24231;52.514;13.438;2022-10-31T15:03:50;45;42;
38451;PMS5003;24231;52.514;13.438;2022-10-31T15:06:19;43;39;
38451;PMS5003;24231;52.514;13.438;2022-10-31T15:08:48;44;42;
38451;PMS5003;24231;52.514;13.438;2022-10-31T15:11:18;48;43;
38451;PMS5003;24231;52.514;13.438;2022-10-31T15:13:47;45;36;
38451;PMS5003;24231;52.514;13.438;2022-10-31T15:16:17;45;33;
38451;PMS5003;24231;52.514;13.438;2022-10-31T15:18:48;52;39;
38451;PMS5003;24231;52.514;13.438;2022-10-31T15:21:19;43;38;
38451;PMS5003;24231;52.514;13.438;2022-10-31T15:23:49;44;35;
38451;PMS5003;24231;52.514;13.438;2022-10-31T15:26:19;47;40;
38451;PMS5003;24231;52.514;13.438;2022-10-31T15:28:57;49;40;
38451;PMS5003;24231;52.514;13.438;2022-10-31T15:31:25;48;45;
38451;PMS5003;24231;52.514;13.438;2022-10-31T15:33:52;47;45;
38451;PMS5003;24231;52.514;13.438;2022-10-31T15:36:21;47;43;
38451;PMS5003;24231;52.514;13.438;2022-10-31T15:38:50;49;40;
38451;PMS5003;24231;52.514;13.438;2022-10-31T15:41:20;47;40;
38451;PMS5003;24231;52.514;13.438;2022-10-31T15:43:53;51;41;
38451;PMS5003;24231;52.514;13.438;2022-10-31T15:46:21;50;42;
38451;PMS5003;24231;52.514;13.438;2022-10-31T15:48:48;49;44;
38451;PMS5003;24231;52.514;13.438;2022-10-31T15:51:15;54;50;
38451;PMS5003;24231;52.514;13.438;2022-10-31T15:53:43;55;45;
38451;PMS5003;24231;52.514;13.438;2022-10-31T15:56:19;48;41;
38451;PMS5003;24231;52.514;13.438;2022-10-31T15:58:48;51;45;
38451;PMS5003;24231;52.514;13.438;2022-10-31T16:01:20;44;39;
38451;PMS5003;24231;52.514;13.438;2022-10-31T16:04:19;57;44;
38451;PMS5003;24231;52.514;13.438;2022-10-31T16:06:57;57;45;
38451;PMS5003;24231;52.514;13.438;2022-10-31T16:09:26;48;42;
38451;PMS5003;24231;52.514;13.438;2022-10-31T16:11:54;45;40;
38451;PMS5003;24231;52.514;13.438;2022-10-31T16:14:24;59;47;
38451;PMS5003;24231;52.514;13.438;2022-10-31T16:16:54;58;40;
38451;PMS5003;24231;52.514;13.438;2022-10-31T16:19:24;47;38;
38451;PMS5003;24231;52.514;13.438;2022-10-31T16:21:55;43;38;
38451;PMS5003;24231;52.514;13.438;2022-10-31T16:24:31;57;48;
38451;PMS5003;24231;52.514;13.438;2022-10-31T16:27:02;45;41;
38451;PMS5003;24231;52.514;13.438;2022-10-31T16:29:33;57;44;